Time;durP1;ratioP1;P1;durP2;ratioP2;P2;SDS_P1;SDS_P2;PMS_P1;PMS_P2;Temp;Humidity;BMP_temperature;BMP_pressure;BME280_temperature;BME280_humidity;BME280_pressure;Samples;Min_cycle;Max_cycle;Signal;HPM_P1;HPM_P2
2022/03/06 00:01:15;;;;;;;6.10;2.38;;;2.40;99.90;;;;;;5048404;28;20441;-63
2022/03/06 00:03:41;;;;;;;6.75;3.00;;;2.30;99.90;;;;;;5051561;28;20423;-62
2022/03/06 00:06:08;;;;;;;5.93;3.05;;;2.40;99.90;;;;;;5050523;28;20463;-63
2022/03/06 00:08:35;;;;;;;6.90;3.58;;;2.50;99.90;;;;;;5048740;28;20504;-62
2022/03/06 00:11:03;;;;;;;7.15;3.33;;;2.40;99.90;;;;;;5052178;28;20457;-62
2022/03/06 00:13:33;;;;;;;5.53;2.80;;;2.50;99.90;;;;;;5053173;28;20417;-62
2022/03/06 00:16:00;;;;;;;5.75;2.90;;;2.60;99.90;;;;;;5053382;28;20479;-62
2022/03/06 00:18:28;;;;;;;7.82;3.00;;;2.70;99.90;;;;;;5051503;28;20457;-62
2022/03/06 00:20:58;;;;;;;7.00;3.70;;;2.70;99.90;;;;;;5052794;28;20460;-62
2022/03/06 00:23:26;;;;;;;5.47;2.90;;;2.80;99.90;;;;;;5053161;28;20542;-62
2022/03/06 00:25:53;;;;;;;5.85;2.47;;;2.80;99.90;;;;;;5052902;28;20997;-62
2022/03/06 00:28:20;;;;;;;5.75;2.70;;;2.80;99.90;;;;;;5051787;28;20425;-63
2022/03/06 00:30:47;;;;;;;5.50;2.92;;;2.70;99.90;;;;;;5053221;28;20425;-63
2022/03/06 00:33:14;;;;;;;6.88;3.33;;;2.60;99.90;;;;;;5052576;28;20729;-63
2022/03/06 00:35:43;;;;;;;6.50;3.22;;;2.70;99.90;;;;;;5053966;28;20433;-63
2022/03/06 00:38:10;;;;;;;6.20;2.80;;;2.60;99.90;;;;;;5047628;28;20457;-63
2022/03/06 00:40:37;;;;;;;7.15;3.00;;;2.70;99.90;;;;;;5054020;28;20437;-63
2022/03/06 00:43:04;;;;;;;5.43;2.90;;;2.60;99.90;;;;;;5052361;28;20925;-63
2022/03/06 00:45:31;;;;;;;5.22;2.90;;;2.50;99.90;;;;;;5052121;28;20857;-63
2022/03/06 00:47:58;;;;;;;4.65;2.58;;;2.40;99.90;;;;;;5052689;28;20494;-63
2022/03/06 00:50:26;;;;;;;5.22;2.40;;;2.40;99.90;;;;;;5051060;28;20432;-63
2022/03/06 00:52:56;;;;;;;5.65;2.83;;;2.30;99.90;;;;;;5050986;28;20427;-63
2022/03/06 00:55:23;;;;;;;4.03;2.40;;;2.20;99.90;;;;;;5053459;28;20503;-62
2022/03/06 00:57:50;;;;;;;5.45;3.00;;;2.00;99.90;;;;;;5052932;28;20422;-63
2022/03/06 01:00:18;;;;;;;5.45;2.63;;;2.00;99.90;;;;;;5045007;28;20441;-62
2022/03/06 01:02:44;;;;;;;6.80;2.97;;;2.00;99.90;;;;;;5051406;28;20425;-63
2022/03/06 01:05:11;;;;;;;5.60;3.17;;;2.00;99.90;;;;;;5058026;28;20788;-62
2022/03/06 01:07:38;;;;;;;7.30;2.70;;;2.00;99.90;;;;;;5056664;28;20429;-62
2022/03/06 01:10:09;;;;;;;7.32;2.72;;;2.00;99.90;;;;;;5054516;28;20441;-62
2022/03/06 01:12:36;;;;;;;4.95;2.55;;;2.10;99.90;;;;;;5055826;28;20420;-63
2022/03/06 01:15:03;;;;;;;6.03;2.78;;;2.20;1.00;;;;;;5053888;28;20475;-62
2022/03/06 01:17:30;;;;;;;5.78;2.53;;;2.30;1.00;;;;;;5055217;28;20428;-62
2022/03/06 01:19:57;;;;;;;4.95;3.03;;;2.30;1.00;;;;;;5050391;28;20436;-63
2022/03/06 01:22:24;;;;;;;6.57;3.10;;;2.40;1.00;;;;;;5056601;28;20439;-63
2022/03/06 01:24:51;;;;;;;5.95;3.08;;;2.50;1.00;;;;;;5054890;28;20888;-62
2022/03/06 01:27:20;;;;;;;6.80;3.60;;;2.40;1.00;;;;;;5052767;28;20432;-63
2022/03/06 01:29:46;;;;;;;8.15;2.92;;;2.30;99.90;;;;;;5048981;28;20417;-60
2022/03/06 01:32:13;;;;;;;5.15;2.95;;;2.30;1.00;;;;;;5055387;28;20468;-63
2022/03/06 01:34:40;;;;;;;7.45;3.17;;;2.30;1.00;;;;;;5057212;28;20425;-63
2022/03/06 01:37:07;;;;;;;7.13;3.20;;;2.40;1.00;;;;;;5054050;28;20456;-63
2022/03/06 01:39:34;;;;;;;5.60;3.00;;;2.40;1.00;;;;;;5056001;28;20481;-61
2022/03/06 01:42:02;;;;;;;8.60;3.27;;;2.40;1.00;;;;;;5056388;28;20433;-61
2022/03/06 01:44:31;;;;;;;5.93;2.70;;;2.40;1.00;;;;;;5056381;28;20417;-61
2022/03/06 01:46:58;;;;;;;5.80;2.60;;;2.40;1.00;;;;;;5046290;28;20492;-61
2022/03/06 01:49:25;;;;;;;3.92;2.50;;;2.40;1.00;;;;;;5056266;28;21161;-61
2022/03/06 01:51:52;;;;;;;5.35;2.42;;;2.40;1.00;;;;;;5051414;28;20432;-62
2022/03/06 01:54:19;;;;;;;6.10;3.20;;;2.40;1.00;;;;;;5052417;28;20494;-62
2022/03/06 01:56:46;;;;;;;5.10;2.70;;;2.50;1.00;;;;;;5051484;28;20763;-61
2022/03/06 01:59:13;;;;;;;6.60;3.20;;;2.60;1.00;;;;;;5057679;28;20483;-62
2022/03/06 02:01:41;;;;;;;6.95;3.45;;;2.60;1.00;;;;;;5056816;28;20468;-61
2022/03/06 02:04:08;;;;;;;5.72;2.40;;;2.60;1.00;;;;;;5054075;28;21169;-61
2022/03/06 02:06:36;;;;;;;6.90;3.10;;;2.50;1.00;;;;;;5054092;28;20464;-61
2022/03/06 02:09:03;;;;;;;5.88;2.63;;;2.30;1.00;;;;;;5052631;28;20460;-61
2022/03/06 02:11:30;;;;;;;5.10;2.92;;;2.30;1.00;;;;;;5052107;28;20429;-62
2022/03/06 02:13:57;;;;;;;6.00;3.00;;;2.10;1.00;;;;;;5050801;28;20441;-62
2022/03/06 02:16:24;;;;;;;6.88;3.05;;;2.00;1.00;;;;;;5053312;28;20437;-62
2022/03/06 02:18:53;;;;;;;7.18;3.10;;;2.00;1.00;;;;;;5055565;28;20501;-62
2022/03/06 02:21:21;;;;;;;5.72;2.83;;;2.00;1.00;;;;;;5054210;28;20495;-61
2022/03/06 02:23:48;;;;;;;5.23;2.80;;;2.20;1.00;;;;;;5048340;28;20472;-62
2022/03/06 02:26:16;;;;;;;6.38;2.90;;;2.30;1.00;;;;;;5055720;28;20472;-62
2022/03/06 02:28:43;;;;;;;5.32;2.10;;;2.40;1.00;;;;;;5054865;28;20436;-62
2022/03/06 02:31:12;;;;;;;3.92;2.55;;;2.50;1.00;;;;;;5052553;28;20437;-61
2022/03/06 02:33:39;;;;;;;7.70;2.92;;;2.60;1.00;;;;;;5046138;28;20892;-61
2022/03/06 02:36:07;;;;;;;6.75;3.28;;;2.70;1.00;;;;;;5054830;28;20927;-62
2022/03/06 02:38:36;;;;;;;7.07;3.13;;;2.60;1.00;;;;;;5048375;28;20433;-61
2022/03/06 02:41:03;;;;;;;7.80;3.28;;;2.50;1.00;;;;;;5040049;28;20434;-61
2022/03/06 02:43:30;;;;;;;5.57;2.80;;;2.50;1.00;;;;;;5055917;28;20479;-62
2022/03/06 02:45:57;;;;;;;5.97;2.97;;;2.40;1.00;;;;;;5055791;28;20499;-61
2022/03/06 02:48:24;;;;;;;6.88;3.10;;;2.50;1.00;;;;;;5055602;28;20491;-61
2022/03/06 02:50:53;;;;;;;6.10;3.40;;;2.50;1.00;;;;;;5047450;28;20560;-61
2022/03/06 02:53:20;;;;;;;7.35;3.00;;;2.50;1.00;;;;;;5052746;28;20853;-62
2022/03/06 02:55:48;;;;;;;6.10;2.70;;;2.30;1.00;;;;;;5054907;28;20483;-61
2022/03/06 02:58:15;;;;;;;5.32;2.55;;;2.20;1.00;;;;;;5052337;28;20468;-62
2022/03/06 03:00:42;;;;;;;5.18;2.72;;;2.10;1.00;;;;;;5052125;28;20868;-62
2022/03/06 03:03:09;;;;;;;6.15;2.90;;;2.00;1.00;;;;;;5052296;28;20417;-61
2022/03/06 03:05:36;;;;;;;4.55;2.20;;;2.00;1.00;;;;;;5055792;28;20475;-61
2022/03/06 03:08:03;;;;;;;5.73;3.13;;;1.90;1.00;;;;;;5052586;28;20448;-62
2022/03/06 03:10:30;;;;;;;6.82;3.22;;;2.00;1.00;;;;;;5046637;28;20465;-62
2022/03/06 03:12:59;;;;;;;6.18;2.33;;;2.00;1.00;;;;;;5054488;28;20421;-61
2022/03/06 03:15:26;;;;;;;5.07;2.97;;;2.10;1.00;;;;;;5051938;28;20442;-61
2022/03/06 03:17:53;;;;;;;6.22;3.00;;;2.40;1.00;;;;;;5052486;28;20503;-61
2022/03/06 03:20:20;;;;;;;7.50;2.92;;;2.50;1.00;;;;;;5049990;28;20441;-61
2022/03/06 03:22:47;;;;;;;5.60;2.70;;;2.50;1.00;;;;;;5050490;28;20499;-61
2022/03/06 03:25:14;;;;;;;5.10;2.60;;;2.60;1.00;;;;;;5054519;28;20437;-61
2022/03/06 03:27:41;;;;;;;6.30;2.45;;;2.70;1.00;;;;;;5048211;28;20504;-61
2022/03/06 03:30:10;;;;;;;6.65;2.85;;;2.70;1.00;;;;;;5051550;28;20440;-61
2022/03/06 03:32:37;;;;;;;5.20;2.40;;;2.70;1.00;;;;;;5049426;28;20498;-61
2022/03/06 03:35:05;;;;;;;6.15;2.90;;;2.60;1.00;;;;;;5051944;28;20495;-61
2022/03/06 03:37:33;;;;;;;5.28;2.00;;;2.60;1.00;;;;;;5044284;28;20631;-61
2022/03/06 03:40:00;;;;;;;6.38;2.70;;;2.60;1.00;;;;;;5053321;28;20849;-62
2022/03/06 03:42:27;;;;;;;4.75;2.55;;;2.50;1.00;;;;;;5052056;28;20526;-63
2022/03/06 03:44:54;;;;;;;8.23;2.53;;;2.40;1.00;;;;;;5050376;28;20505;-61
2022/03/06 03:47:22;;;;;;;5.63;2.80;;;2.30;1.00;;;;;;5054527;28;20430;-61
2022/03/06 03:49:50;;;;;;;5.60;2.50;;;2.30;1.00;;;;;;5052398;28;20491;-61
2022/03/06 03:52:17;;;;;;;6.07;3.28;;;2.30;1.00;;;;;;5053496;28;20421;-61
2022/03/06 03:54:44;;;;;;;6.72;2.60;;;2.40;1.00;;;;;;5047224;28;20445;-61
2022/03/06 03:57:13;;;;;;;5.13;2.60;;;2.30;1.00;;;;;;5051005;28;20498;-61
2022/03/06 03:59:40;;;;;;;4.40;2.40;;;2.20;1.00;;;;;;5053740;28;20433;-61
2022/03/06 04:02:07;;;;;;;6.55;2.92;;;2.10;1.00;;;;;;5053505;28;20914;-62
2022/03/06 04:04:36;;;;;;;8.77;3.27;;;2.10;1.00;;;;;;5047872;28;20784;-62
2022/03/06 04:07:03;;;;;;;5.80;3.10;;;2.20;1.00;;;;;;5052843;28;20425;-63
2022/03/06 04:09:30;;;;;;;4.10;2.70;;;2.10;1.00;;;;;;5052367;28;20547;-62
2022/03/06 04:11:57;;;;;;;4.57;2.67;;;2.30;1.00;;;;;;5051572;28;20433;-62
2022/03/06 04:14:24;;;;;;;5.38;2.60;;;2.20;1.00;;;;;;5047792;28;20490;-63
2022/03/06 04:16:51;;;;;;;6.38;2.92;;;2.30;1.00;;;;;;5053597;28;20461;-62
2022/03/06 04:19:18;;;;;;;5.03;2.70;;;2.30;1.00;;;;;;5053317;28;20462;-62
2022/03/06 04:21:46;;;;;;;6.23;3.30;;;2.30;1.00;;;;;;5050614;28;20441;-62
2022/03/06 04:24:13;;;;;;;7.75;3.00;;;2.30;1.00;;;;;;5048218;28;20847;-62
2022/03/06 04:26:40;;;;;;;8.07;3.03;;;2.20;1.00;;;;;;5050866;28;20499;-62
2022/03/06 04:29:07;;;;;;;5.60;3.03;;;2.10;1.00;;;;;;5052034;28;20433;-62
2022/03/06 04:31:34;;;;;;;6.25;3.33;;;2.00;1.00;;;;;;5046266;28;20441;-62
2022/03/06 04:34:01;;;;;;;5.95;2.40;;;2.00;1.00;;;;;;5047962;28;20425;-63
2022/03/06 04:36:28;;;;;;;5.15;2.85;;;2.00;1.00;;;;;;5046455;28;20464;-62
2022/03/06 04:38:57;;;;;;;6.07;3.20;;;2.00;1.00;;;;;;5050562;28;20429;-61
2022/03/06 04:41:24;;;;;;;5.82;2.80;;;2.00;1.00;;;;;;5045717;28;20436;-61
2022/03/06 04:43:52;;;;;;;7.97;2.67;;;1.90;1.00;;;;;;5052450;28;20435;-61
2022/03/06 04:46:19;;;;;;;7.40;2.70;;;1.90;1.00;;;;;;5052402;28;20916;-61
2022/03/06 04:48:46;;;;;;;4.93;2.20;;;1.80;1.00;;;;;;5048889;28;20464;-61
2022/03/06 04:51:13;;;;;;;5.22;2.78;;;1.70;1.00;;;;;;5050675;28;20499;-61
2022/03/06 04:53:40;;;;;;;5.53;2.40;;;1.70;1.00;;;;;;5052780;28;20434;-61
2022/03/06 04:56:08;;;;;;;6.10;2.80;;;1.70;1.00;;;;;;5052936;28;20524;-61
2022/03/06 04:58:36;;;;;;;7.13;3.10;;;1.80;1.00;;;;;;5050077;28;20522;-60
2022/03/06 05:01:04;;;;;;;5.60;3.25;;;1.70;1.00;;;;;;5051620;28;20498;-61
2022/03/06 05:03:31;;;;;;;6.10;2.70;;;1.50;1.00;;;;;;5050407;28;20756;-61
2022/03/06 05:05:58;;;;;;;4.50;2.53;;;1.30;1.00;;;;;;5052919;28;20468;-60
2022/03/06 05:08:28;;;;;;;7.97;3.17;;;1.30;1.00;;;;;;5044898;28;20591;-60
2022/03/06 05:10:55;;;;;;;5.72;2.50;;;1.30;1.00;;;;;;5053465;28;20433;-61
2022/03/06 05:13:25;;;;;;;7.35;3.30;;;1.30;1.00;;;;;;5051466;28;20527;-60
2022/03/06 05:15:52;;;;;;;6.05;3.10;;;1.30;1.00;;;;;;5052667;28;20867;-61
2022/03/06 05:18:19;;;;;;;6.93;3.88;;;1.30;1.00;;;;;;5049681;28;20425;-61
2022/03/06 05:20:46;;;;;;;6.63;3.10;;;1.40;1.00;;;;;;5050774;28;20435;-60
2022/03/06 05:23:13;;;;;;;6.80;3.15;;;1.30;1.00;;;;;;5050398;28;20441;-61
2022/03/06 05:25:40;;;;;;;5.25;2.30;;;1.40;1.00;;;;;;5049377;28;20495;-61
2022/03/06 05:28:07;;;;;;;4.80;2.30;;;1.40;1.00;;;;;;5050315;28;20421;-61
2022/03/06 05:30:36;;;;;;;8.07;3.00;;;1.40;1.00;;;;;;5053716;28;20437;-60
2022/03/06 05:33:03;;;;;;;6.55;3.17;;;1.50;1.00;;;;;;5053188;28;20498;-60
2022/03/06 05:35:30;;;;;;;6.63;2.60;;;1.40;1.00;;;;;;5046096;28;20500;-60
2022/03/06 05:37:57;;;;;;;6.72;2.72;;;1.40;1.00;;;;;;5049197;28;20429;-60
2022/03/06 05:40:24;;;;;;;5.57;2.47;;;1.50;1.00;;;;;;5051540;28;20495;-60
2022/03/06 05:42:51;;;;;;;6.10;2.83;;;1.50;1.00;;;;;;5049830;28;20493;-62
2022/03/06 05:45:18;;;;;;;6.40;3.00;;;1.50;1.00;;;;;;5050580;28;20449;-60
2022/03/06 05:47:47;;;;;;;6.57;2.92;;;1.50;1.00;;;;;;5052296;28;20464;-60
2022/03/06 05:50:14;;;;;;;6.37;3.10;;;1.60;1.00;;;;;;5055645;28;20536;-61
2022/03/06 05:52:41;;;;;;;7.45;3.20;;;1.60;1.00;;;;;;5054461;28;20946;-60
2022/03/06 05:55:09;;;;;;;5.68;3.20;;;1.60;1.00;;;;;;5052844;28;20435;-60
2022/03/06 05:57:37;;;;;;;5.00;2.90;;;1.60;1.00;;;;;;5051448;28;20483;-60
2022/03/06 06:00:08;;;;;;;6.60;2.97;;;1.70;1.00;;;;;;5053691;28;20467;-61
2022/03/06 06:02:35;;;;;;;5.57;2.47;;;1.70;1.00;;;;;;5046645;28;20465;-61
2022/03/06 06:05:04;;;;;;;5.80;3.17;;;1.70;1.00;;;;;;5055084;28;20425;-61
2022/03/06 06:07:31;;;;;;;7.40;3.47;;;1.70;1.00;;;;;;5055950;28;20522;-61
2022/03/06 06:09:58;;;;;;;4.88;2.60;;;1.70;1.00;;;;;;5044661;28;20429;-61
2022/03/06 06:12:25;;;;;;;7.22;3.47;;;1.60;1.00;;;;;;5047571;28;20483;-61
2022/03/06 06:14:52;;;;;;;5.97;2.80;;;1.60;1.00;;;;;;5056243;28;20425;-62
2022/03/06 06:17:19;;;;;;;5.03;2.75;;;1.60;1.00;;;;;;5049113;28;20499;-61
2022/03/06 06:19:46;;;;;;;5.90;3.30;;;1.70;1.00;;;;;;5054798;28;20437;-60
2022/03/06 06:22:15;;;;;;;6.40;3.83;;;1.70;1.00;;;;;;5047534;28;20441;-61
2022/03/06 06:24:42;;;;;;;5.97;2.50;;;1.70;1.00;;;;;;5053221;28;20510;-60
2022/03/06 06:27:09;;;;;;;5.15;2.97;;;1.70;1.00;;;;;;5055041;28;20887;-61
2022/03/06 06:29:36;;;;;;;6.20;2.95;;;1.70;1.00;;;;;;5052051;28;20438;-61
2022/03/06 06:32:03;;;;;;;7.85;3.08;;;1.70;1.00;;;;;;5054075;28;20862;-61
2022/03/06 06:34:30;;;;;;;7.05;3.85;;;1.70;1.00;;;;;;5054721;28;20425;-61
2022/03/06 06:36:58;;;;;;;7.10;3.17;;;1.80;1.00;;;;;;5054870;28;20433;-61
2022/03/06 06:39:26;;;;;;;7.37;3.00;;;1.80;1.00;;;;;;5051537;28;20700;-61
2022/03/06 06:41:53;;;;;;;5.88;2.90;;;1.90;1.00;;;;;;5056910;28;20475;-61
2022/03/06 06:44:20;;;;;;;6.20;2.90;;;2.00;1.00;;;;;;5056286;28;20540;-61
2022/03/06 06:46:47;;;;;;;6.18;3.30;;;2.10;1.00;;;;;;5055074;28;20441;-61
2022/03/06 06:49:14;;;;;;;6.00;3.10;;;2.00;1.00;;;;;;5054846;28;20429;-61
2022/03/06 06:51:41;;;;;;;7.65;3.40;;;1.90;1.00;;;;;;5055033;28;20801;-61
2022/03/06 06:54:08;;;;;;;6.00;3.00;;;2.00;1.00;;;;;;5055710;28;20421;-61
2022/03/06 06:56:37;;;;;;;6.15;3.78;;;2.10;1.00;;;;;;5045120;28;20444;-61
2022/03/06 06:59:04;;;;;;;6.50;3.78;;;2.10;1.00;;;;;;5050884;28;20438;-61
2022/03/06 07:01:31;;;;;;;7.50;3.00;;;1.90;1.00;;;;;;5055947;28;20502;-61
2022/03/06 07:03:58;;;;;;;7.80;3.33;;;1.90;1.00;;;;;;5054759;28;20429;-61
2022/03/06 07:06:24;;;;;;;9.63;3.70;;;2.00;1.00;;;;;;5053055;28;20527;-61
2022/03/06 07:08:51;;;;;;;8.30;3.93;;;2.00;1.00;;;;;;5054444;28;20425;-61
2022/03/06 07:11:18;;;;;;;6.63;3.30;;;2.00;1.00;;;;;;5054889;28;20864;-61
2022/03/06 07:13:47;;;;;;;6.10;3.00;;;2.10;1.00;;;;;;5055994;28;20413;-61
2022/03/06 07:16:14;;;;;;;5.93;3.20;;;2.10;1.00;;;;;;5053934;28;20487;-61
2022/03/06 07:18:41;;;;;;;6.03;3.50;;;2.10;1.00;;;;;;5055639;28;20427;-61
2022/03/06 07:21:08;;;;;;;8.17;3.90;;;2.20;1.00;;;;;;5053882;28;20510;-61
2022/03/06 07:23:35;;;;;;;9.35;3.80;;;2.30;1.00;;;;;;5048469;28;20437;-61
2022/03/06 07:26:02;;;;;;;9.43;4.28;;;2.50;1.00;;;;;;5055713;28;20494;-61
2022/03/06 07:28:29;;;;;;;7.85;3.28;;;2.60;1.00;;;;;;5054038;28;20426;-61
2022/03/06 07:30:58;;;;;;;7.30;3.30;;;2.70;1.00;;;;;;5054490;28;20883;-61
2022/03/06 07:33:25;;;;;;;5.90;3.33;;;2.70;1.00;;;;;;5053763;28;20425;-61
2022/03/06 07:35:52;;;;;;;6.53;3.58;;;2.70;1.00;;;;;;5055068;28;20563;-61
2022/03/06 07:38:19;;;;;;;6.95;3.67;;;2.70;1.00;;;;;;5049989;28;20425;-61
2022/03/06 07:40:46;;;;;;;6.60;3.67;;;2.70;1.00;;;;;;5055153;28;20436;-61
2022/03/06 07:43:13;;;;;;;5.53;2.85;;;2.50;1.00;;;;;;5052003;28;20467;-61
2022/03/06 07:45:40;;;;;;;5.90;3.40;;;2.30;1.00;;;;;;5045770;28;20444;-61
2022/03/06 07:48:08;;;;;;;6.18;3.35;;;2.20;1.00;;;;;;5052020;28;21073;-62
2022/03/06 07:50:36;;;;;;;6.55;3.95;;;2.40;1.00;;;;;;5049029;28;20495;-61
2022/03/06 07:53:03;;;;;;;7.63;3.20;;;2.40;1.00;;;;;;5053960;28;20479;-63
2022/03/06 07:55:30;;;;;;;7.10;3.50;;;2.40;1.00;;;;;;5052642;28;20437;-63
2022/03/06 07:57:57;;;;;;;6.85;3.70;;;2.50;1.00;;;;;;5052609;28;20430;-63
2022/03/06 08:00:24;;;;;;;8.57;3.88;;;2.60;1.00;;;;;;5047024;28;20432;-61
2022/03/06 08:02:51;;;;;;;7.60;4.28;;;2.40;1.00;;;;;;5052763;28;20440;-61
2022/03/06 08:05:21;;;;;;;8.07;3.85;;;2.30;1.00;;;;;;5052669;28;20939;-60
2022/03/06 08:07:48;;;;;;;7.13;3.53;;;2.50;1.00;;;;;;5053150;28;20707;-62
2022/03/06 08:10:15;;;;;;;6.78;4.40;;;2.80;1.00;;;;;;5051899;28;20862;-63
2022/03/06 08:12:42;;;;;;;7.57;3.83;;;3.00;1.00;;;;;;5052849;28;20421;-63
2022/03/06 08:15:10;;;;;;;5.70;3.30;;;2.90;1.00;;;;;;5049551;28;20429;-63
2022/03/06 08:17:37;;;;;;;7.05;3.63;;;3.00;1.00;;;;;;5050369;28;20487;-62
2022/03/06 08:20:05;;;;;;;6.00;3.10;;;3.00;1.00;;;;;;5052301;28;20471;-61
2022/03/06 08:22:33;;;;;;;6.07;3.72;;;2.80;1.00;;;;;;5046212;28;20483;-61
2022/03/06 08:25:41;;;;;;;7.83;3.60;;;3.00;1.00;;;;;;5046665;28;20421;-61
2022/03/06 08:28:08;;;;;;;8.88;3.88;;;3.10;1.00;;;;;;5050228;28;20445;-61
2022/03/06 08:30:35;;;;;;;5.60;3.47;;;2.90;1.00;;;;;;5047623;28;20734;-61
2022/03/06 08:33:02;;;;;;;7.88;4.13;;;2.90;1.00;;;;;;5053731;28;20428;-61
2022/03/06 08:35:29;;;;;;;6.13;3.38;;;3.00;1.00;;;;;;5053767;28;20425;-61
2022/03/06 08:37:57;;;;;;;6.85;3.35;;;3.10;1.00;;;;;;5049687;28;20441;-61
2022/03/06 08:40:25;;;;;;;5.97;3.85;;;3.10;1.00;;;;;;5048256;28;20436;-62
2022/03/06 08:42:53;;;;;;;6.97;3.30;;;3.20;1.00;;;;;;5050340;28;20512;-63
2022/03/06 08:45:21;;;;;;;7.53;4.13;;;3.30;1.00;;;;;;5050753;28;20462;-62
2022/03/06 08:47:48;;;;;;;7.45;4.28;;;3.40;1.00;;;;;;5047050;28;20445;-62
2022/03/06 08:50:15;;;;;;;8.25;4.20;;;3.20;1.00;;;;;;5051327;28;20428;-62
2022/03/06 08:52:42;;;;;;;8.48;4.20;;;3.20;1.00;;;;;;5048638;28;20836;-62
2022/03/06 08:55:12;;;;;;;8.02;3.83;;;3.50;1.00;;;;;;5048977;28;20464;-62
2022/03/06 08:57:39;;;;;;;7.47;3.95;;;3.60;1.00;;;;;;5046276;28;20532;-62
2022/03/06 09:00:08;;;;;;;8.18;3.30;;;3.70;1.00;;;;;;5045707;28;20514;-62
2022/03/06 09:02:36;;;;;;;8.70;4.85;;;3.90;1.00;;;;;;5043836;28;20499;-60
2022/03/06 09:05:04;;;;;;;7.85;3.80;;;3.90;1.00;;;;;;5045185;28;20567;-61
2022/03/06 09:07:32;;;;;;;7.53;3.80;;;3.80;1.00;;;;;;5048435;28;20499;-62
2022/03/06 09:09:59;;;;;;;6.75;3.00;;;3.90;1.00;;;;;;5043783;28;20463;-62
2022/03/06 09:12:29;;;;;;;6.43;3.57;;;3.90;1.00;;;;;;5044147;28;20503;-61
2022/03/06 09:14:56;;;;;;;7.68;3.75;;;3.90;1.00;;;;;;5045865;28;20500;-63
2022/03/06 09:17:24;;;;;;;6.50;3.67;;;4.00;1.00;;;;;;5043612;28;20769;-63
2022/03/06 09:19:52;;;;;;;6.93;3.73;;;4.10;1.00;;;;;;5038661;28;20430;-62
2022/03/06 09:22:20;;;;;;;5.90;3.00;;;4.10;1.00;;;;;;5040345;28;20475;-63
2022/03/06 09:24:48;;;;;;;6.43;3.13;;;4.20;1.00;;;;;;5051959;28;20512;-63
2022/03/06 09:27:16;;;;;;;6.00;3.53;;;4.20;1.00;;;;;;5045823;28;20498;-62
2022/03/06 09:29:46;;;;;;;5.75;2.92;;;4.30;1.00;;;;;;5044098;28;20459;-61
2022/03/06 09:32:15;;;;;;;9.23;3.65;;;4.30;1.00;;;;;;5048525;28;20468;-61
2022/03/06 09:34:43;;;;;;;7.30;4.10;;;4.30;1.00;;;;;;5046253;28;20464;-62
2022/03/06 09:37:11;;;;;;;7.53;4.18;;;4.30;1.00;;;;;;5048689;28;20447;-62
2022/03/06 09:39:39;;;;;;;7.55;3.75;;;4.30;1.00;;;;;;5050430;28;20513;-61
2022/03/06 09:42:09;;;;;;;9.45;4.80;;;4.40;1.00;;;;;;5045564;28;20437;-61
2022/03/06 09:44:39;;;;;;;6.23;3.10;;;4.50;1.00;;;;;;5045984;28;20564;-62
2022/03/06 09:47:12;;;;;;;7.57;3.50;;;4.60;1.00;;;;;;5051637;28;20895;-61
2022/03/06 09:49:42;;;;;;;5.10;3.03;;;4.70;1.00;;;;;;5045722;28;20522;-61
2022/03/06 09:52:11;;;;;;;7.15;3.30;;;4.70;1.00;;;;;;5046887;28;20429;-61
2022/03/06 09:54:39;;;;;;;5.38;2.97;;;4.80;1.00;;;;;;5044491;28;20450;-62
2022/03/06 09:57:07;;;;;;;6.88;3.30;;;4.80;1.00;;;;;;5049827;28;20542;-61
2022/03/06 09:59:36;;;;;;;8.10;3.83;;;4.80;1.00;;;;;;5048759;28;20544;-62
2022/03/06 10:02:05;;;;;;;5.93;2.67;;;4.80;1.00;;;;;;5049857;28;20429;-63
2022/03/06 10:04:37;;;;;;;6.95;3.60;;;5.00;1.00;;;;;;5053908;28;20799;-62
2022/03/06 10:07:06;;;;;;;6.60;2.80;;;5.10;1.00;;;;;;5048749;28;20421;-63
2022/03/06 10:09:42;;;;;;;6.25;2.60;;;5.30;1.00;;;;;;5043939;28;20542;-63
2022/03/06 10:12:20;;;;;;;5.80;2.63;;;5.30;1.00;;;;;;5047604;28;20491;-62
2022/03/06 10:14:49;;;;;;;5.97;2.80;;;5.60;1.00;;;;;;5050018;28;20523;-62
2022/03/06 10:17:19;;;;;;;6.18;2.95;;;5.80;1.00;;;;;;5050176;28;20921;-61
2022/03/06 10:19:56;;;;;;;6.00;3.08;;;6.00;1.00;;;;;;5043576;28;20520;-64
2022/03/06 10:22:29;;;;;;;6.82;3.15;;;6.20;1.00;;;;;;5048212;28;20866;-62
2022/03/06 10:24:58;;;;;;;5.38;2.85;;;6.40;1.00;;;;;;5042482;28;20502;-63
2022/03/06 10:27:53;;;;;;;4.90;2.80;;;6.60;1.00;;;;;;5046996;28;20986;-62
2022/03/06 10:30:31;;;;;;;4.50;2.55;;;6.70;1.00;;;;;;5051102;28;20425;-61
2022/03/06 10:33:01;;;;;;;6.68;2.90;;;6.60;1.00;;;;;;5046453;28;20432;-62
2022/03/06 10:35:48;;;;;;;5.50;2.30;;;6.70;1.00;;;;;;5046230;28;20494;-62
2022/03/06 10:38:23;;;;;;;7.22;3.40;;;6.80;1.00;;;;;;5047167;28;20438;-61
2022/03/06 10:40:52;;;;;;;4.90;2.33;;;7.00;1.00;;;;;;5051190;28;21364;-62
2022/03/06 10:43:23;;;;;;;6.38;3.00;;;6.80;1.00;;;;;;5051525;28;20444;-61
2022/03/06 10:45:52;;;;;;;5.85;2.80;;;6.80;1.00;;;;;;5046774;28;20478;-61
2022/03/06 10:48:20;;;;;;;6.97;2.80;;;7.10;1.00;;;;;;5049473;28;20726;-61
2022/03/06 10:51:00;;;;;;;6.13;2.80;;;7.30;1.00;;;;;;5052064;28;20475;-63
2022/03/06 10:53:29;;;;;;;5.38;2.78;;;7.40;1.00;;;;;;5049330;28;20494;-61
2022/03/06 10:56:06;;;;;;;5.70;2.92;;;7.40;1.00;;;;;;5042253;28;20744;-61
2022/03/06 10:58:36;;;;;;;4.18;2.80;;;7.70;1.00;;;;;;5044942;28;20433;-61
2022/03/06 11:01:05;;;;;;;5.78;3.50;;;7.80;1.00;;;;;;5048680;28;20448;-62
2022/03/06 11:03:35;;;;;;;5.97;3.22;;;8.10;1.00;;;;;;5045081;28;20538;-63
2022/03/06 11:06:07;;;;;;;5.68;3.15;;;8.10;1.00;;;;;;5050795;28;20794;-63
2022/03/06 11:08:36;;;;;;;8.02;3.20;;;7.80;99.90;;;;;;5050647;28;20467;-62
2022/03/06 11:11:07;;;;;;;6.53;3.23;;;7.70;99.90;;;;;;5047624;28;20501;-62
2022/03/06 11:13:35;;;;;;;6.10;3.00;;;7.50;99.90;;;;;;5042489;28;20563;-62
2022/03/06 11:16:03;;;;;;;4.95;3.20;;;7.20;99.90;;;;;;5042627;28;20555;-62
2022/03/06 11:18:32;;;;;;;6.85;2.70;;;6.90;99.90;;;;;;5043507;28;20526;-62
2022/03/06 11:21:01;;;;;;;4.70;2.40;;;6.70;99.90;;;;;;5043160;28;20457;-63
2022/03/06 11:23:36;;;;;;;7.05;3.60;;;6.60;99.90;;;;;;5045959;28;20449;-62
2022/03/06 11:26:34;;;;;;;9.67;5.53;;;6.60;99.90;;;;;;5047211;28;20443;-62
2022/03/06 11:29:27;;;;;;;5.70;2.10;;;6.70;99.90;;;;;;5044698;28;20490;-62
2022/03/06 11:31:55;;;;;;;4.70;2.00;;;7.10;99.90;;;;;;5049294;28;20468;-61
2022/03/06 11:34:28;;;;;;;5.28;2.97;;;7.30;99.90;;;;;;5049050;28;20422;-61
2022/03/06 11:36:58;;;;;;;4.55;2.10;;;7.40;99.90;;;;;;5046417;28;20447;-61
2022/03/06 11:39:47;;;;;;;3.58;2.03;;;7.40;99.90;;;;;;5058534;28;20432;-62
2022/03/06 11:42:48;;;;;;;4.07;2.70;;;7.30;99.90;;;;;;5048204;28;20421;-62
2022/03/06 11:45:54;;;;;;;4.70;2.30;;;7.70;99.90;;;;;;5046666;28;20447;-62
2022/03/06 11:48:48;;;;;;;4.95;2.25;;;7.90;99.90;;;;;;5049550;28;21020;-62
2022/03/06 11:51:26;;;;;;;4.03;2.00;;;7.50;99.90;;;;;;5047451;28;20474;-63
2022/03/06 11:53:56;;;;;;;4.03;2.05;;;7.90;99.90;;;;;;5049669;28;20506;-63
2022/03/06 11:56:50;;;;;;;5.07;2.85;;;8.30;99.90;;;;;;5048585;28;20512;-62
2022/03/06 11:59:40;;;;;;;4.07;2.00;;;8.50;99.90;;;;;;5041295;28;20431;-63
2022/03/06 12:02:19;;;;;;;4.82;2.47;;;8.70;99.90;;;;;;5040959;28;20464;-63
2022/03/06 12:04:56;;;;;;;3.73;1.87;;;8.70;99.90;;;;;;5048899;28;20547;-63
2022/03/06 12:07:26;;;;;;;4.20;2.10;;;9.10;99.90;;;;;;5044265;28;21310;-63
2022/03/06 12:09:55;;;;;;;4.20;2.17;;;8.90;99.90;;;;;;5047683;28;20446;-63
2022/03/06 12:12:27;;;;;;;5.07;2.60;;;8.90;99.90;;;;;;5050611;28;20733;-62
2022/03/06 12:14:58;;;;;;;3.47;1.60;;;8.70;99.90;;;;;;5052808;28;20557;-62
2022/03/06 12:17:35;;;;;;;4.53;2.60;;;8.90;99.90;;;;;;5046095;28;20856;-63
2022/03/06 12:20:30;;;;;;;4.27;2.10;;;9.00;99.90;;;;;;5044593;28;20437;-62
2022/03/06 12:23:09;;;;;;;4.55;1.80;;;9.30;99.90;;;;;;5039707;28;20801;-62
2022/03/06 12:25:39;;;;;;;4.28;2.10;;;9.50;99.90;;;;;;5044741;28;20926;-62
2022/03/06 12:28:36;;;;;;;5.95;2.80;;;9.50;99.90;;;;;;5047032;28;20527;-63
2022/03/06 12:31:35;;;;;;;5.88;3.30;;;9.20;99.90;;;;;;5047680;28;20433;-63
2022/03/06 12:34:41;;;;;;;4.87;2.40;;;8.90;99.90;;;;;;5047610;28;20776;-63
2022/03/06 12:37:09;;;;;;;4.18;2.30;;;8.20;99.90;;;;;;5041160;28;20422;-62
2022/03/06 12:39:39;;;;;;;3.43;2.20;;;7.60;99.90;;;;;;5054564;28;20433;-64
2022/03/06 12:42:09;;;;;;;3.83;2.00;;;7.40;99.90;;;;;;5052849;28;20504;-64
2022/03/06 12:44:46;;;;;;;2.20;1.70;;;7.40;99.90;;;;;;5045500;28;20473;-63
2022/03/06 12:47:14;;;;;;;3.92;2.10;;;7.50;99.90;;;;;;5051247;28;20797;-63
2022/03/06 12:49:46;;;;;;;4.10;2.20;;;7.60;99.90;;;;;;5045975;28;20433;-63
2022/03/06 12:52:18;;;;;;;4.00;2.05;;;7.60;99.90;;;;;;5043678;28;20498;-63
2022/03/06 12:54:47;;;;;;;4.20;2.20;;;7.40;99.90;;;;;;5045552;28;20425;-64
2022/03/06 12:57:15;;;;;;;3.75;2.00;;;7.40;99.90;;;;;;5034785;28;20459;-63
2022/03/06 12:59:48;;;;;;;5.30;2.83;;;7.30;99.90;;;;;;5046977;28;20516;-64
2022/03/06 13:02:19;;;;;;;4.70;2.50;;;7.60;99.90;;;;;;5044651;28;20425;-64
2022/03/06 13:04:50;;;;;;;2.97;1.60;;;7.70;99.90;;;;;;5048848;28;20857;-63
2022/03/06 13:07:21;;;;;;;3.30;1.83;;;8.10;99.90;;;;;;5045197;28;20518;-63
2022/03/06 13:09:56;;;;;;;3.80;1.80;;;8.50;99.90;;;;;;5046186;28;20433;-64
2022/03/06 13:12:25;;;;;;;3.00;1.50;;;8.70;99.90;;;;;;5042752;28;20522;-63
2022/03/06 13:14:55;;;;;;;3.60;1.88;;;8.90;99.90;;;;;;5043600;28;20530;-64
2022/03/06 13:17:23;;;;;;;3.97;2.10;;;9.20;99.90;;;;;;5038521;28;20422;-64